TUI3FB LEPA-EDDV
Flight info
| Callsign | TUI3FB |
|---|---|
| Flight time | 2h 5m |
| Altitude | 36000 |
| Route | MEROS N853 LUMAS DCT MAXIR DCT LUSOL DCT BODRU DCT OKTET DCT IRMAR DCT KINES DCT VANAS DCT ESOKO DCT GODRA DCT LOKTA DCT TEDGO DCT HAREM DCT LOHRE DCT MASEK Z99 ELNAT P605 WERRA |
| Aircraft | B38M/M-SDE1FGHILORVWXY/HB1 |
Departure
| Time | 2026-05-04 11:01 |
|---|---|
| Airport | Palma de Mallorca Airport (LEPA) |
Arrival
| Time | 2026-05-04 13:06 |
|---|---|
| Airport | Hannover Airport (EDDV) |
| Time | Latitude | Longitude | Altitude | Speed | Heading |
|---|---|---|---|---|---|
| 2026-05-04 10:04 | 39.54738 | 2.73360 | 41 ft | 0 kts | 239° |
| 2026-05-04 10:46 | 39.54741 | 2.73367 | 40 ft | 3 kts | 239° |
| 2026-05-04 10:46 | 39.54750 | 2.73387 | 38 ft | 3 kts | 239° |
| 2026-05-04 10:46 | 39.54758 | 2.73410 | 39 ft | 3 kts | 263° |
| 2026-05-04 10:47 | 39.54756 | 2.73434 | 41 ft | 3 kts | 294° |
| 2026-05-04 10:47 | 39.54745 | 2.73455 | 38 ft | 3 kts | 316° |
| 2026-05-04 10:47 | 39.54735 | 2.73466 | 40 ft | 3 kts | 325° |
| 2026-05-04 10:47 | 39.54719 | 2.73479 | 40 ft | 3 kts | 328° |
| 2026-05-04 10:49 | 39.54696 | 2.73497 | 39 ft | 0 kts | 328° |
| 2026-05-04 10:51 | 39.54749 | 2.73547 | 41 ft | 7 kts | 144° |
| 2026-05-04 10:52 | 39.54700 | 2.73585 | 41 ft | 9 kts | 149° |
| 2026-05-04 10:52 | 39.54653 | 2.73633 | 40 ft | 7 kts | 110° |
| 2026-05-04 10:52 | 39.54670 | 2.73693 | 40 ft | 8 kts | 58° |
| 2026-05-04 10:54 | 39.54966 | 2.74010 | 41 ft | 8 kts | 354° |
| 2026-05-04 10:54 | 39.55018 | 2.73975 | 41 ft | 9 kts | 329° |
| 2026-05-04 10:56 | 39.55575 | 2.73535 | 41 ft | 13 kts | 328° |
| 2026-05-04 10:56 | 39.55631 | 2.73500 | 40 ft | 8 kts | 1° |
| 2026-05-04 10:56 | 39.55675 | 2.73544 | 41 ft | 9 kts | 59° |
| 2026-05-04 10:57 | 39.55712 | 2.73620 | 41 ft | 11 kts | 58° |
| 2026-05-04 10:57 | 39.55756 | 2.73715 | 41 ft | 15 kts | 59° |
| 2026-05-04 10:57 | 39.55817 | 2.73848 | 41 ft | 19 kts | 58° |
| 2026-05-04 10:57 | 39.55889 | 2.73996 | 41 ft | 20 kts | 58° |
| 2026-05-04 10:58 | 39.55961 | 2.74146 | 41 ft | 20 kts | 58° |
| 2026-05-04 10:58 | 39.56043 | 2.74272 | 41 ft | 18 kts | 27° |
| 2026-05-04 10:58 | 39.56145 | 2.74340 | 40 ft | 16 kts | 27° |
| 2026-05-04 10:58 | 39.56226 | 2.74326 | 41 ft | 11 kts | 332° |
| 2026-05-04 10:59 | 39.56240 | 2.74297 | 41 ft | 3 kts | 265° |
| 2026-05-04 10:59 | 39.56229 | 2.74269 | 41 ft | 6 kts | 239° |
| 2026-05-04 10:59 | 39.56134 | 2.74068 | 41 ft | 61 kts | 238° |
| 2026-05-04 10:59 | 39.55779 | 2.73319 | 39 ft | 129 kts | 238° |
| 2026-05-04 11:00 | 39.55237 | 2.72165 | 231 ft | 165 kts | 238° |
| 2026-05-04 11:01 | 39.50188 | 2.61696 | 4988 ft | 214 kts | 234° |
| 2026-05-04 11:02 | 39.49171 | 2.60190 | 5528 ft | 232 kts | 221° |
| 2026-05-04 11:02 | 39.47756 | 2.59011 | 6022 ft | 251 kts | 210° |
| 2026-05-04 11:05 | 39.28589 | 2.78704 | 15100 ft | 364 kts | 91° |
| 2026-05-04 11:06 | 39.28581 | 2.81993 | 15698 ft | 368 kts | 91° |
| 2026-05-04 11:06 | 39.28560 | 2.85327 | 16298 ft | 373 kts | 91° |
| 2026-05-04 11:06 | 39.28532 | 2.88692 | 16885 ft | 378 kts | 91° |
| 2026-05-04 11:06 | 39.28599 | 2.92102 | 17443 ft | 383 kts | 81° |
| 2026-05-04 11:08 | 39.37602 | 3.14086 | 20961 ft | 410 kts | 60° |
| 2026-05-04 11:10 | 39.47974 | 3.36989 | 24143 ft | 434 kts | 59° |
| 2026-05-04 11:12 | 39.59038 | 3.61152 | 26773 ft | 456 kts | 60° |
| 2026-05-04 11:12 | 39.60657 | 3.64702 | 27122 ft | 459 kts | 60° |
| 2026-05-04 11:12 | 39.62289 | 3.68286 | 27474 ft | 462 kts | 60° |
| 2026-05-04 11:12 | 39.63908 | 3.71846 | 27824 ft | 465 kts | 60° |
| 2026-05-04 11:13 | 39.65577 | 3.75520 | 28185 ft | 467 kts | 60° |
| 2026-05-04 11:13 | 39.67210 | 3.79118 | 28514 ft | 470 kts | 60° |
| 2026-05-04 11:13 | 39.68875 | 3.82793 | 28862 ft | 473 kts | 60° |
| 2026-05-04 11:13 | 39.70548 | 3.86487 | 29184 ft | 476 kts | 60° |
| 2026-05-04 11:14 | 39.72230 | 3.90208 | 29529 ft | 479 kts | 60° |
| 2026-05-04 11:14 | 39.73922 | 3.93954 | 29822 ft | 482 kts | 60° |
| 2026-05-04 11:14 | 39.75620 | 3.97718 | 30115 ft | 484 kts | 60° |
| 2026-05-04 11:16 | 39.89984 | 4.21941 | 31807 ft | 496 kts | 17° |
| 2026-05-04 11:16 | 39.93294 | 4.23117 | 32063 ft | 492 kts | 6° |
| 2026-05-04 11:16 | 39.96666 | 4.23976 | 32240 ft | 496 kts | 6° |
| 2026-05-04 11:17 | 40.00063 | 4.24818 | 32510 ft | 497 kts | 6° |
| 2026-05-04 11:17 | 40.03475 | 4.25638 | 32762 ft | 500 kts | 5° |
| 2026-05-04 11:19 | 40.27394 | 4.31287 | 34947 ft | 498 kts | 4° |
| 2026-05-04 11:19 | 40.30800 | 4.32093 | 35248 ft | 497 kts | 4° |
| 2026-05-04 11:19 | 40.34196 | 4.32899 | 35530 ft | 496 kts | 4° |
| 2026-05-04 11:19 | 40.37595 | 4.33706 | 35800 ft | 495 kts | 4° |
| 2026-05-04 11:20 | 40.40984 | 4.34511 | 36013 ft | 495 kts | 4° |
| 2026-05-04 11:20 | 40.44382 | 4.35320 | 36019 ft | 495 kts | 4° |
| 2026-05-04 11:20 | 40.51093 | 4.36919 | 35999 ft | 492 kts | 4° |
| 2026-05-04 11:22 | 40.78073 | 4.43380 | 36005 ft | 492 kts | 4° |
| 2026-05-04 11:23 | 40.84813 | 4.45002 | 35998 ft | 492 kts | 4° |
| 2026-05-04 11:25 | 41.08339 | 4.50703 | 35999 ft | 491 kts | 4° |
| 2026-05-04 11:25 | 41.15056 | 4.52339 | 35998 ft | 491 kts | 4° |
| 2026-05-04 11:27 | 41.45198 | 4.59718 | 35999 ft | 489 kts | 4° |
| 2026-05-04 11:28 | 41.51900 | 4.61368 | 35997 ft | 489 kts | 4° |
| 2026-05-04 11:28 | 41.58597 | 4.63021 | 35999 ft | 489 kts | 4° |
| 2026-05-04 11:29 | 41.65290 | 4.64676 | 36000 ft | 489 kts | 3° |
| 2026-05-04 11:29 | 41.71976 | 4.66425 | 35987 ft | 494 kts | 11° |
| 2026-05-04 11:31 | 41.93311 | 4.82737 | 36002 ft | 507 kts | 26° |
| 2026-05-04 11:33 | 42.14402 | 4.99822 | 36009 ft | 506 kts | 26° |
| 2026-05-04 11:33 | 42.20427 | 5.04728 | 36011 ft | 505 kts | 26° |
| 2026-05-04 11:34 | 42.26449 | 5.09642 | 36014 ft | 505 kts | 26° |
| 2026-05-04 11:34 | 42.32459 | 5.14557 | 36000 ft | 505 kts | 26° |
| 2026-05-04 11:35 | 42.38440 | 5.19460 | 36022 ft | 505 kts | 26° |
| 2026-05-04 11:35 | 42.44453 | 5.24400 | 36012 ft | 504 kts | 26° |
| 2026-05-04 11:36 | 42.50413 | 5.29308 | 36020 ft | 504 kts | 26° |
| 2026-05-04 11:36 | 42.56412 | 5.34259 | 36020 ft | 504 kts | 26° |
| 2026-05-04 11:37 | 42.62394 | 5.39208 | 36030 ft | 503 kts | 26° |
| 2026-05-04 11:37 | 42.67365 | 5.43328 | 36032 ft | 503 kts | 26° |
| 2026-05-04 11:38 | 42.73341 | 5.48292 | 36038 ft | 503 kts | 26° |
| 2026-05-04 11:38 | 42.79297 | 5.53250 | 36037 ft | 502 kts | 26° |
| 2026-05-04 11:39 | 42.85261 | 5.58227 | 36041 ft | 502 kts | 27° |
| 2026-05-04 11:41 | 43.06069 | 5.75680 | 36045 ft | 501 kts | 27° |
| 2026-05-04 11:41 | 43.11994 | 5.80676 | 36048 ft | 500 kts | 27° |
| 2026-05-04 11:42 | 43.17925 | 5.85688 | 36050 ft | 500 kts | 27° |
| 2026-05-04 11:42 | 43.23811 | 5.90673 | 36052 ft | 500 kts | 27° |
| 2026-05-04 11:43 | 43.29726 | 5.95692 | 36048 ft | 499 kts | 27° |
| 2026-05-04 11:43 | 43.35623 | 6.00707 | 36074 ft | 499 kts | 27° |
| 2026-05-04 11:43 | 43.38668 | 6.02936 | 36027 ft | 490 kts | 15° |
| 2026-05-04 11:44 | 43.41917 | 6.04040 | 36046 ft | 475 kts | 360° |
| 2026-05-04 11:44 | 43.48512 | 6.04898 | 36045 ft | 477 kts | 358° |
| 2026-05-04 11:45 | 43.55131 | 6.05619 | 36057 ft | 476 kts | 358° |
| 2026-05-04 11:45 | 43.61711 | 6.06287 | 36054 ft | 476 kts | 358° |
| 2026-05-04 11:46 | 43.68325 | 6.06955 | 36058 ft | 476 kts | 358° |
| 2026-05-04 11:46 | 43.74935 | 6.07650 | 36056 ft | 478 kts | 2° |
| 2026-05-04 11:46 | 43.78188 | 6.08787 | 36066 ft | 488 kts | 18° |
| 2026-05-04 11:47 | 43.81287 | 6.10780 | 36066 ft | 492 kts | 21° |
| 2026-05-04 11:47 | 43.87465 | 6.14881 | 36069 ft | 492 kts | 22° |
| 2026-05-04 11:48 | 43.93593 | 6.19051 | 36069 ft | 491 kts | 22° |
| 2026-05-04 11:48 | 43.99725 | 6.23245 | 36077 ft | 490 kts | 22° |
| 2026-05-04 11:49 | 44.05846 | 6.27442 | 36087 ft | 490 kts | 22° |
| 2026-05-04 11:49 | 44.11918 | 6.31615 | 36081 ft | 490 kts | 22° |
| 2026-05-04 11:50 | 44.18034 | 6.35827 | 36091 ft | 490 kts | 22° |
| 2026-05-04 11:50 | 44.24144 | 6.40044 | 36095 ft | 490 kts | 22° |
| 2026-05-04 11:51 | 44.30247 | 6.44265 | 36108 ft | 489 kts | 23° |
| 2026-05-04 11:51 | 44.36341 | 6.48491 | 36090 ft | 489 kts | 23° |
| 2026-05-04 11:52 | 44.42436 | 6.52726 | 36119 ft | 489 kts | 23° |
| 2026-05-04 11:52 | 44.48523 | 6.56966 | 36115 ft | 488 kts | 23° |
| 2026-05-04 11:53 | 44.54607 | 6.61213 | 36120 ft | 488 kts | 23° |
| 2026-05-04 11:53 | 44.60676 | 6.65458 | 36140 ft | 487 kts | 23° |
| 2026-05-04 11:55 | 44.85384 | 6.78533 | 36145 ft | 469 kts | 354° |
| 2026-05-04 11:56 | 44.91902 | 6.78236 | 36168 ft | 469 kts | 353° |
| 2026-05-04 11:56 | 44.98427 | 6.77831 | 36176 ft | 469 kts | 353° |
| 2026-05-04 11:57 | 45.04908 | 6.77404 | 36151 ft | 469 kts | 353° |
| 2026-05-04 11:57 | 45.11446 | 6.76972 | 36162 ft | 470 kts | 353° |
| 2026-05-04 11:58 | 45.17982 | 6.76538 | 36131 ft | 470 kts | 353° |
| 2026-05-04 11:58 | 45.24527 | 6.76102 | 36147 ft | 471 kts | 353° |
| 2026-05-04 11:59 | 45.31074 | 6.75666 | 36123 ft | 471 kts | 353° |
| 2026-05-04 11:59 | 45.37627 | 6.75228 | 36121 ft | 471 kts | 353° |
| 2026-05-04 12:00 | 45.44192 | 6.75119 | 36097 ft | 476 kts | 6° |
| 2026-05-04 12:00 | 45.47383 | 6.76405 | 36103 ft | 481 kts | 22° |
| 2026-05-04 12:00 | 45.50346 | 6.78659 | 36111 ft | 485 kts | 27° |
| 2026-05-04 12:01 | 45.56222 | 6.83404 | 36119 ft | 486 kts | 28° |
| 2026-05-04 12:02 | 45.76594 | 7.00363 | 36113 ft | 484 kts | 28° |
| 2026-05-04 12:03 | 45.82411 | 7.05238 | 36111 ft | 483 kts | 28° |
| 2026-05-04 12:03 | 45.88184 | 7.10089 | 36113 ft | 482 kts | 28° |
| 2026-05-04 12:04 | 45.93963 | 7.14963 | 36098 ft | 481 kts | 29° |
| 2026-05-04 12:04 | 45.99739 | 7.19847 | 36038 ft | 480 kts | 29° |
| 2026-05-04 12:05 | 46.05496 | 7.24725 | 36019 ft | 480 kts | 29° |
| 2026-05-04 12:05 | 46.11251 | 7.29614 | 36027 ft | 480 kts | 29° |
| 2026-05-04 12:06 | 46.17007 | 7.34517 | 36030 ft | 479 kts | 29° |
| 2026-05-04 12:06 | 46.22748 | 7.39417 | 36012 ft | 479 kts | 29° |
| 2026-05-04 12:07 | 46.28449 | 7.44297 | 36028 ft | 479 kts | 29° |
| 2026-05-04 12:07 | 46.34178 | 7.49212 | 36016 ft | 478 kts | 29° |
| 2026-05-04 12:08 | 46.39911 | 7.54142 | 36013 ft | 478 kts | 29° |
| 2026-05-04 12:08 | 46.45633 | 7.59075 | 36008 ft | 479 kts | 29° |
| 2026-05-04 12:09 | 46.51369 | 7.64032 | 35995 ft | 479 kts | 29° |
| 2026-05-04 12:09 | 46.57097 | 7.68994 | 35998 ft | 479 kts | 30° |
| 2026-05-04 12:10 | 46.62725 | 7.74053 | 36008 ft | 479 kts | 31° |
| 2026-05-04 12:10 | 46.68373 | 7.79175 | 35985 ft | 478 kts | 31° |
| 2026-05-04 12:11 | 46.74036 | 7.84318 | 35987 ft | 479 kts | 31° |
| 2026-05-04 12:11 | 46.79690 | 7.89464 | 35988 ft | 478 kts | 31° |
| 2026-05-04 12:12 | 46.85337 | 7.94619 | 35994 ft | 478 kts | 31° |
| 2026-05-04 12:12 | 46.90977 | 7.99778 | 35981 ft | 478 kts | 31° |
| 2026-05-04 12:14 | 47.13454 | 8.20475 | 35991 ft | 477 kts | 31° |
| 2026-05-04 12:15 | 47.19073 | 8.25681 | 35996 ft | 477 kts | 31° |
| 2026-05-04 12:15 | 47.24675 | 8.30884 | 35997 ft | 477 kts | 31° |
| 2026-05-04 12:16 | 47.30287 | 8.36111 | 35993 ft | 476 kts | 31° |
| 2026-05-04 12:16 | 47.35885 | 8.41337 | 35999 ft | 476 kts | 31° |
| 2026-05-04 12:17 | 47.41434 | 8.46531 | 35994 ft | 476 kts | 31° |
| 2026-05-04 12:17 | 47.47021 | 8.51774 | 35984 ft | 475 kts | 31° |
| 2026-05-04 12:18 | 47.52608 | 8.57030 | 35999 ft | 475 kts | 31° |
| 2026-05-04 12:18 | 47.58185 | 8.62290 | 35987 ft | 475 kts | 31° |
| 2026-05-04 12:19 | 47.63772 | 8.67573 | 35991 ft | 475 kts | 31° |
| 2026-05-04 12:19 | 47.69323 | 8.72836 | 35987 ft | 475 kts | 31° |
| 2026-05-04 12:20 | 47.74897 | 8.78134 | 35989 ft | 475 kts | 31° |
| 2026-05-04 12:20 | 47.80478 | 8.83452 | 35987 ft | 476 kts | 31° |
| 2026-05-04 12:21 | 47.86018 | 8.88745 | 35993 ft | 476 kts | 31° |
| 2026-05-04 12:21 | 47.91589 | 8.94082 | 35982 ft | 476 kts | 31° |
| 2026-05-04 12:22 | 47.97154 | 8.99426 | 35973 ft | 476 kts | 31° |
| 2026-05-04 12:22 | 48.02732 | 9.04796 | 35981 ft | 476 kts | 31° |
| 2026-05-04 12:23 | 48.08262 | 9.10131 | 35974 ft | 476 kts | 31° |
| 2026-05-04 12:23 | 48.13832 | 9.15513 | 35981 ft | 476 kts | 30° |
| 2026-05-04 12:24 | 48.16792 | 9.17640 | 35957 ft | 470 kts | 14° |
| 2026-05-04 12:24 | 48.19981 | 9.18605 | 35999 ft | 466 kts | 5° |
| 2026-05-04 12:24 | 48.25338 | 9.19670 | 35976 ft | 468 kts | 4° |
| 2026-05-04 12:25 | 48.31817 | 9.20820 | 35980 ft | 468 kts | 3° |
| 2026-05-04 12:25 | 48.39347 | 9.22098 | 35995 ft | 468 kts | 3° |
| 2026-05-04 12:26 | 48.44728 | 9.23009 | 35980 ft | 468 kts | 3° |
| 2026-05-04 12:26 | 48.51210 | 9.24110 | 35995 ft | 469 kts | 3° |
| 2026-05-04 12:27 | 48.57692 | 9.25213 | 35992 ft | 468 kts | 3° |
| 2026-05-04 12:27 | 48.64194 | 9.26254 | 35995 ft | 468 kts | 2° |
| 2026-05-04 12:28 | 48.70646 | 9.27234 | 35996 ft | 468 kts | 2° |
| 2026-05-04 12:28 | 48.77135 | 9.28227 | 36001 ft | 468 kts | 2° |
| 2026-05-04 12:29 | 48.83616 | 9.29223 | 35990 ft | 468 kts | 2° |
| 2026-05-04 12:29 | 48.90105 | 9.30222 | 35992 ft | 468 kts | 2° |
| 2026-05-04 12:30 | 48.96582 | 9.31222 | 35995 ft | 468 kts | 2° |
| 2026-05-04 12:30 | 49.03038 | 9.32222 | 36000 ft | 469 kts | 2° |
| 2026-05-04 12:31 | 49.09526 | 9.33229 | 35996 ft | 468 kts | 2° |
| 2026-05-04 12:31 | 49.16014 | 9.34238 | 35997 ft | 468 kts | 2° |
| 2026-05-04 12:32 | 49.25750 | 9.35758 | 36001 ft | 469 kts | 2° |
| 2026-05-04 12:33 | 49.32257 | 9.36777 | 36003 ft | 469 kts | 2° |
| 2026-05-04 12:33 | 49.38733 | 9.37795 | 36003 ft | 469 kts | 2° |
| 2026-05-04 12:34 | 49.45240 | 9.38819 | 36000 ft | 469 kts | 2° |
| 2026-05-04 12:34 | 49.51704 | 9.39840 | 36006 ft | 470 kts | 2° |
| 2026-05-04 12:35 | 49.58214 | 9.40870 | 35999 ft | 470 kts | 2° |
| 2026-05-04 12:35 | 49.64718 | 9.41903 | 36001 ft | 470 kts | 2° |
| 2026-05-04 12:36 | 49.71236 | 9.42942 | 36000 ft | 470 kts | 2° |
| 2026-05-04 12:36 | 49.77742 | 9.43981 | 35998 ft | 470 kts | 2° |
| 2026-05-04 12:37 | 49.84223 | 9.45019 | 35994 ft | 470 kts | 2° |
| 2026-05-04 12:37 | 49.90740 | 9.46065 | 35997 ft | 470 kts | 2° |
| 2026-05-04 12:38 | 49.97250 | 9.47113 | 35996 ft | 470 kts | 2° |
| 2026-05-04 12:38 | 50.03760 | 9.48164 | 35993 ft | 470 kts | 2° |
| 2026-05-04 12:39 | 50.10272 | 9.49243 | 35998 ft | 470 kts | 2° |
| 2026-05-04 12:39 | 50.16778 | 9.50330 | 35994 ft | 470 kts | 2° |
| 2026-05-04 12:40 | 50.23237 | 9.51412 | 35994 ft | 469 kts | 2° |
| 2026-05-04 12:40 | 50.29730 | 9.52502 | 35994 ft | 469 kts | 2° |
| 2026-05-04 12:41 | 50.36178 | 9.53589 | 35993 ft | 461 kts | 2° |
| 2026-05-04 12:41 | 50.42514 | 9.54658 | 35981 ft | 459 kts | 2° |
| 2026-05-04 12:42 | 50.48872 | 9.55735 | 35986 ft | 459 kts | 2° |
| 2026-05-04 12:42 | 50.55227 | 9.56814 | 35983 ft | 460 kts | 2° |
| 2026-05-04 12:43 | 50.61578 | 9.57895 | 35245 ft | 459 kts | 2° |
| 2026-05-04 12:43 | 50.64786 | 9.58442 | 34304 ft | 467 kts | 2° |
| 2026-05-04 12:43 | 50.68039 | 9.58998 | 33442 ft | 471 kts | 2° |
| 2026-05-04 12:43 | 50.71308 | 9.59579 | 32717 ft | 471 kts | 2° |
| 2026-05-04 12:44 | 50.74549 | 9.60172 | 32120 ft | 468 kts | 2° |
| 2026-05-04 12:44 | 50.77775 | 9.60760 | 31499 ft | 466 kts | 2° |
| 2026-05-04 12:44 | 50.80969 | 9.61342 | 30889 ft | 465 kts | 2° |
| 2026-05-04 12:44 | 50.84173 | 9.61925 | 30289 ft | 463 kts | 2° |
| 2026-05-04 12:45 | 50.87384 | 9.62510 | 29625 ft | 462 kts | 3° |
| 2026-05-04 12:45 | 50.90567 | 9.63091 | 28939 ft | 461 kts | 3° |
| 2026-05-04 12:45 | 50.93755 | 9.63675 | 28273 ft | 459 kts | 3° |
| 2026-05-04 12:45 | 50.96932 | 9.64257 | 27621 ft | 458 kts | 3° |
| 2026-05-04 12:46 | 51.00050 | 9.64829 | 26992 ft | 456 kts | 3° |
| 2026-05-04 12:46 | 51.03203 | 9.65408 | 26374 ft | 454 kts | 3° |
| 2026-05-04 12:46 | 51.06336 | 9.65985 | 25771 ft | 452 kts | 3° |
| 2026-05-04 12:46 | 51.09466 | 9.66561 | 25182 ft | 450 kts | 3° |
| 2026-05-04 12:47 | 51.12574 | 9.67134 | 24631 ft | 448 kts | 4° |
| 2026-05-04 12:47 | 51.15662 | 9.67705 | 24089 ft | 445 kts | 4° |
| 2026-05-04 12:47 | 51.18732 | 9.68273 | 23559 ft | 443 kts | 4° |
| 2026-05-04 12:47 | 51.21784 | 9.68837 | 22934 ft | 440 kts | 4° |
| 2026-05-04 12:48 | 51.24787 | 9.69394 | 22328 ft | 438 kts | 4° |
| 2026-05-04 12:48 | 51.27806 | 9.69954 | 21731 ft | 436 kts | 4° |
| 2026-05-04 12:48 | 51.30808 | 9.70513 | 21134 ft | 434 kts | 4° |
| 2026-05-04 12:48 | 51.33800 | 9.71070 | 20561 ft | 431 kts | 4° |
| 2026-05-04 12:49 | 51.36776 | 9.71624 | 19990 ft | 429 kts | 4° |
| 2026-05-04 12:49 | 51.39730 | 9.72176 | 19433 ft | 427 kts | 4° |
| 2026-05-04 12:49 | 51.42688 | 9.72729 | 18887 ft | 425 kts | 4° |
| 2026-05-04 12:49 | 51.45618 | 9.73277 | 18385 ft | 423 kts | 4° |
| 2026-05-04 12:50 | 51.48523 | 9.73822 | 17850 ft | 420 kts | 4° |
| 2026-05-04 12:50 | 51.51410 | 9.74363 | 17421 ft | 414 kts | 4° |
| 2026-05-04 12:50 | 51.54253 | 9.74897 | 17025 ft | 408 kts | 4° |
| 2026-05-04 12:50 | 51.57050 | 9.75423 | 16622 ft | 402 kts | 4° |
| 2026-05-04 12:51 | 51.59788 | 9.75938 | 16224 ft | 397 kts | 4° |
| 2026-05-04 12:51 | 51.62516 | 9.76452 | 15839 ft | 392 kts | 4° |
| 2026-05-04 12:51 | 51.65209 | 9.76961 | 15455 ft | 388 kts | 4° |
| 2026-05-04 12:51 | 51.67881 | 9.77466 | 15072 ft | 384 kts | 4° |
| 2026-05-04 12:52 | 51.70528 | 9.77967 | 14695 ft | 380 kts | 4° |
| 2026-05-04 12:52 | 51.73132 | 9.78460 | 14327 ft | 376 kts | 4° |
| 2026-05-04 12:52 | 51.75715 | 9.78950 | 13984 ft | 373 kts | 4° |
| 2026-05-04 12:52 | 51.78297 | 9.79441 | 13590 ft | 371 kts | 4° |
| 2026-05-04 12:53 | 51.80851 | 9.79925 | 13177 ft | 368 kts | 4° |
| 2026-05-04 12:53 | 51.83381 | 9.80407 | 12778 ft | 365 kts | 4° |
| 2026-05-04 12:53 | 51.85902 | 9.80887 | 12383 ft | 362 kts | 4° |
| 2026-05-04 12:53 | 51.88389 | 9.81361 | 11984 ft | 359 kts | 4° |
| 2026-05-04 12:54 | 51.90870 | 9.81835 | 11591 ft | 356 kts | 4° |
| 2026-05-04 12:54 | 51.93286 | 9.82298 | 11218 ft | 353 kts | 4° |
| 2026-05-04 12:54 | 51.95717 | 9.82763 | 10840 ft | 350 kts | 4° |
| 2026-05-04 12:54 | 51.98131 | 9.83225 | 10462 ft | 347 kts | 4° |
| 2026-05-04 12:55 | 52.00528 | 9.83686 | 10090 ft | 345 kts | 4° |
| 2026-05-04 12:55 | 52.02903 | 9.84141 | 9699 ft | 342 kts | 5° |
| 2026-05-04 12:55 | 52.05259 | 9.84594 | 9296 ft | 339 kts | 5° |
| 2026-05-04 12:55 | 52.07599 | 9.85044 | 8900 ft | 334 kts | 5° |
| 2026-05-04 12:56 | 52.09867 | 9.85481 | 8503 ft | 322 kts | 5° |
| 2026-05-04 12:56 | 52.12026 | 9.85897 | 8129 ft | 311 kts | 4° |
| 2026-05-04 12:56 | 52.14113 | 9.86299 | 7745 ft | 301 kts | 5° |
| 2026-05-04 12:56 | 52.16164 | 9.86696 | 7384 ft | 292 kts | 4° |
| 2026-05-04 12:57 | 52.18144 | 9.87080 | 7040 ft | 283 kts | 5° |
| 2026-05-04 12:57 | 52.20081 | 9.87454 | 6696 ft | 278 kts | 4° |
| 2026-05-04 12:57 | 52.21990 | 9.87823 | 6344 ft | 275 kts | 5° |
| 2026-05-04 12:57 | 52.23886 | 9.88202 | 5966 ft | 273 kts | 7° |
| 2026-05-04 12:58 | 52.25636 | 9.89320 | 5578 ft | 273 kts | 35° |
| 2026-05-04 12:58 | 52.27081 | 9.91321 | 5224 ft | 271 kts | 40° |
| 2026-05-04 12:58 | 52.28484 | 9.93305 | 4875 ft | 269 kts | 40° |
| 2026-05-04 12:58 | 52.29884 | 9.95296 | 4573 ft | 264 kts | 40° |
| 2026-05-04 12:59 | 52.31266 | 9.97265 | 4295 ft | 258 kts | 40° |
| 2026-05-04 12:59 | 52.32585 | 9.99152 | 4059 ft | 253 kts | 40° |
| 2026-05-04 12:59 | 52.33900 | 10.01038 | 3798 ft | 251 kts | 40° |
| 2026-05-04 12:59 | 52.35221 | 10.02931 | 3574 ft | 255 kts | 39° |
| 2026-05-04 13:00 | 52.36667 | 10.04623 | 3303 ft | 259 kts | 20° |
| 2026-05-04 13:00 | 52.38398 | 10.05147 | 3080 ft | 246 kts | 1° |
| 2026-05-04 13:00 | 52.40045 | 10.05307 | 3009 ft | 226 kts | 0° |
| 2026-05-04 13:00 | 52.41539 | 10.05448 | 2993 ft | 203 kts | 0° |
| 2026-05-04 13:01 | 52.42845 | 10.05142 | 2979 ft | 183 kts | 330° |
| 2026-05-04 13:01 | 52.43793 | 10.03834 | 3080 ft | 178 kts | 302° |
| 2026-05-04 13:01 | 52.44273 | 10.01977 | 3052 ft | 178 kts | 284° |
| 2026-05-04 13:01 | 52.44488 | 9.99994 | 2974 ft | 177 kts | 276° |
| 2026-05-04 13:02 | 52.44608 | 9.97997 | 2987 ft | 171 kts | 274° |
| 2026-05-04 13:02 | 52.44684 | 9.96133 | 2959 ft | 159 kts | 273° |
| 2026-05-04 13:02 | 52.44743 | 9.94348 | 2895 ft | 153 kts | 272° |
| 2026-05-04 13:02 | 52.44796 | 9.92620 | 2738 ft | 151 kts | 273° |
| 2026-05-04 13:03 | 52.44849 | 9.90890 | 2553 ft | 154 kts | 274° |
| 2026-05-04 13:03 | 52.44901 | 9.89113 | 2354 ft | 157 kts | 274° |
| 2026-05-04 13:03 | 52.44951 | 9.87349 | 2148 ft | 153 kts | 274° |
| 2026-05-04 13:03 | 52.44998 | 9.85665 | 1987 ft | 146 kts | 273° |
| 2026-05-04 13:04 | 52.45044 | 9.84017 | 1729 ft | 143 kts | 274° |
| 2026-05-04 13:04 | 52.45089 | 9.82393 | 1543 ft | 142 kts | 274° |
| 2026-05-04 13:04 | 52.45134 | 9.80767 | 1343 ft | 143 kts | 275° |
| 2026-05-04 13:04 | 52.45180 | 9.79139 | 1181 ft | 143 kts | 274° |
| 2026-05-04 13:05 | 52.45221 | 9.77508 | 957 ft | 143 kts | 274° |
| 2026-05-04 13:05 | 52.45267 | 9.75875 | 760 ft | 144 kts | 275° |
| 2026-05-04 13:05 | 52.45317 | 9.74221 | 575 ft | 146 kts | 274° |
| 2026-05-04 13:05 | 52.45360 | 9.72568 | 387 ft | 146 kts | 274° |
| 2026-05-04 13:06 | 52.45406 | 9.70937 | 208 ft | 143 kts | 274° |
| 2026-05-04 13:06 | 52.45448 | 9.69502 | 187 ft | 92 kts | 272° |
| 2026-05-04 13:06 | 52.45469 | 9.68773 | 183 ft | 55 kts | 273° |
| 2026-05-04 13:06 | 52.45478 | 9.68349 | 184 ft | 15 kts | 272° |
| 2026-05-04 13:07 | 52.45524 | 9.68252 | 183 ft | 11 kts | 349° |
| 2026-05-04 13:07 | 52.45593 | 9.68254 | 181 ft | 7 kts | 2° |
| 2026-05-04 13:07 | 52.45646 | 9.68281 | 181 ft | 9 kts | 55° |
| 2026-05-04 13:07 | 52.45645 | 9.68390 | 181 ft | 11 kts | 97° |
| 2026-05-04 13:08 | 52.45639 | 9.68527 | 181 ft | 13 kts | 91° |
| 2026-05-04 13:08 | 52.45636 | 9.68683 | 181 ft | 13 kts | 92° |
| 2026-05-04 13:08 | 52.45630 | 9.68836 | 181 ft | 12 kts | 92° |
| 2026-05-04 13:08 | 52.45626 | 9.68963 | 181 ft | 12 kts | 92° |
| 2026-05-04 13:09 | 52.45623 | 9.69098 | 181 ft | 13 kts | 92° |
| 2026-05-04 13:09 | 52.45618 | 9.69257 | 181 ft | 15 kts | 92° |
| 2026-05-04 13:09 | 52.45613 | 9.69443 | 181 ft | 17 kts | 92° |
| 2026-05-04 13:09 | 52.45610 | 9.69560 | 181 ft | 8 kts | 92° |
| 2026-05-04 13:10 | 52.45607 | 9.69665 | 181 ft | 9 kts | 92° |
| 2026-05-04 13:10 | 52.45604 | 9.69769 | 181 ft | 6 kts | 92° |
| 2026-05-04 13:10 | 52.45632 | 9.69826 | 181 ft | 8 kts | 13° |
| 2026-05-04 13:10 | 52.45669 | 9.69823 | 181 ft | 3 kts | 8° |
| 2026-05-04 13:11 | 52.45702 | 9.69831 | 181 ft | 6 kts | 7° |
| 2026-05-04 13:11 | 52.45750 | 9.69837 | 181 ft | 7 kts | 4° |
| 2026-05-04 13:11 | 52.45780 | 9.69849 | 181 ft | 4 kts | 32° |
| 2026-05-04 13:11 | 52.45795 | 9.69874 | 181 ft | 1 kts | 51° |
| 2026-05-04 13:12 | 52.45799 | 9.69882 | 181 ft | 1 kts | 51° |
| 2026-05-04 13:12 | 52.45803 | 9.69890 | 181 ft | 0 kts | 51° |